Huntersville, North Carolina
Current Conditions -  °F | °C
As of 6:50 AM on Monday 26 Jan 2015 (Local Time) from KJQF Reporting Station
Broken Clouds Broken Clouds  
Wind Chill: 41°   Ceiling: 8000
Heat Index: 41°   Visibility: 10mi
Dew Point: 37°   Wind: 0mph
Humidity: 87%   Direction: NA
Pressure: 29.67"   Gusts: NA
Location:  35.42°N, 80.85°W
Report Text: KJQF 261150Z 00000KT 10SM BKN080 05/03 A2967
Loading
Personal Weather Stations






























Interactive Weather Map New forecast layout! Learn more

10-Day Weather Forecast

Advertisements
Track Severe Weather on mobile